Columbus, NM (88029)

1:24 AM MDT on August 04, 2015 (GMT -0600)
Sapphire IABR | | Change Station
CLOSE
Current Station
Personal Weather Station
Location: Columbus, NM
Elevation: 4345 ft
Nearby Weather Stations

Elev 4345 ft 31.80 °N, 107.78 °W | Updated 7 minutes ago

Mostly Cloudy
Mostly Cloudy
74.0 °F
Feels Like 77 °F
N
2.0
Wind Variable Wind from East
Gusts 4.0 mph

Today
High -- | Low -- °F
--% Chance of Precip.
Yesterday
High -- | Low -- °F
Precip. -- in
6:28 AM 8:04 PM
Waning Gibbous, 80% visible
Pressure 29.82 in
Visibility 10.0 miles
Clouds Mostly Cloudy 12000 ft
Heat Index 77 °F
Dew Point 59 °F
Humidity 60%
Rainfall 0.00 in
Snow Depth Not available.
UV 0 out of 12
Pollen 2.70 out of 12
Air Quality Not available.
Flu Activity Not available.
METAR KDMN 040653Z AUTO 12008G19KT 10SM BKN120 26/14 A3008 RMK AO2 SLP096 T02610139 403560194 $

More Conditions Fewer Conditions

Pressure 29.82 in
Visibility 10.0 miles
Clouds Mostly Cloudy 12000 ft
Heat Index 77 °F
Dew Point 59 °F
Humidity 60%
Rainfall 0.00 in
Snow Depth Not available.
UV 0 out of 12
Pollen 2.70 out of 12
Air Quality Not available.
Flu Activity Not available.
METAR KDMN 040653Z AUTO 12008G19KT 10SM BKN120 26/14 A3008 RMK AO2 SLP096 T02610139 403560194 $

More Conditions Fewer Conditions

Nowcast | as of 10:49 PM MDT on August 3, 2015

At 1050 PM MDT...isolated showers and thunderstorms were occurring over southern Hudspeth County and portions of Dona Ana and Otero counties. These storms were moving to the south at 10 to 15 mph. Periods of moderate to heavy rainfall...frequent lightning and wind gusts up to 45 mph will be possible. Minor localized flooding along drainages and arroyos may occur near heavier rainfall. Storms will continue for the next few hours.

×

10-Day Weather Forecast

×

Almanac

Astronomy

Aug. 04, 2015 Rise Set
Actual Time
Civil Twilight
Nautical Twilight
Astronomical Twilight
Moon
Length of Visible Light
Length of Day
Tomorrow will be .
, % of the Moon is Illuminated

Today's Extremes

State Highs State Lows

Community

WunderPhotos

Upload Photos

1,843,877 photos uploaded!

WunderBlogs® & News

Nearby

Air Quality

  Air Quality AQ Index Pollutant
Not available.

Snow Depth

Station Depth Elevation

Earthquake Activity

City Distance Mag. Time & Date
Minimum magnitude displayed is 2.5.

Coastal Water Temperatures

Place Temperature

Stations

Nearby Weather Stations

Station Location Temp. Windchill Dew Point Humidity Wind Precip. Elev Updated Type